createdAt,value
2018-04-22T00:01:19.398Z,14.85
2018-04-22T00:03:46.869Z,14.83
2018-04-22T00:06:14.362Z,14.82
2018-04-22T00:08:41.837Z,14.74
2018-04-22T00:11:09.340Z,14.66
2018-04-22T00:13:36.810Z,14.62
2018-04-22T00:16:04.305Z,14.64
2018-04-22T00:18:31.781Z,14.64
2018-04-22T00:20:59.278Z,14.56
2018-04-22T00:23:26.749Z,14.52
2018-04-22T00:25:54.520Z,14.49
2018-04-22T00:28:22.047Z,14.43
2018-04-22T00:30:49.539Z,14.39
2018-04-22T00:33:17.022Z,14.44
2018-04-22T00:35:44.515Z,14.43
2018-04-22T00:38:11.980Z,14.19
2018-04-22T00:40:39.493Z,14.22
2018-04-22T00:43:06.957Z,14.15
2018-04-22T00:45:34.427Z,14.28
2018-04-22T00:48:01.910Z,14.24
2018-04-22T00:50:29.383Z,14.28
2018-04-22T00:52:56.870Z,14.25
2018-04-22T00:55:24.690Z,14.21
2018-04-22T00:57:52.180Z,14.18
2018-04-22T01:00:19.657Z,14.18
2018-04-22T01:02:47.150Z,14.13
2018-04-22T01:05:14.718Z,14.17
2018-04-22T01:07:42.225Z,14.19
2018-04-22T01:10:09.858Z,14.10
2018-04-22T01:12:37.343Z,14.06
2018-04-22T01:15:04.829Z,14.02
2018-04-22T01:17:32.329Z,13.90
2018-04-22T01:19:59.795Z,13.89
2018-04-22T01:22:27.266Z,13.90
2018-04-22T01:24:54.757Z,13.85
2018-04-22T01:27:22.238Z,13.69
2018-04-22T01:29:49.730Z,13.61
2018-04-22T01:32:17.198Z,13.15
2018-04-22T01:34:44.690Z,12.90
2018-04-22T01:37:12.154Z,12.93
2018-04-22T01:39:39.643Z,12.79
2018-04-22T01:42:07.107Z,12.86
2018-04-22T01:44:34.598Z,13.04
2018-04-22T01:47:02.065Z,13.02
2018-04-22T01:49:29.558Z,12.96
2018-04-22T01:51:57.034Z,12.90
2018-04-22T01:54:24.526Z,12.96
2018-04-22T01:56:51.994Z,12.94
2018-04-22T01:59:19.492Z,13.02
2018-04-22T02:01:46.963Z,13.13
2018-04-22T02:04:14.452Z,13.22
2018-04-22T02:06:41.919Z,13.25
2018-04-22T02:09:09.414Z,13.26
2018-04-22T02:11:36.888Z,13.27
2018-04-22T02:14:04.396Z,13.23
2018-04-22T02:16:31.861Z,13.28
2018-04-22T02:18:59.355Z,12.96
2018-04-22T02:21:26.825Z,12.91
2018-04-22T02:23:54.321Z,12.99
2018-04-22T02:26:21.786Z,13.06
2018-04-22T02:28:49.274Z,13.12
2018-04-22T02:31:16.747Z,13.16
2018-04-22T02:33:44.218Z,12.82
2018-04-22T02:36:11.717Z,12.69
2018-04-22T02:38:39.181Z,12.80
2018-04-22T02:41:06.683Z,12.89
2018-04-22T02:43:34.214Z,12.92
2018-04-22T02:46:01.682Z,12.96
2018-04-22T02:48:29.153Z,12.98
2018-04-22T02:50:56.640Z,12.86
2018-04-22T02:53:24.114Z,12.67
2018-04-22T02:55:51.610Z,12.57
2018-04-22T02:58:19.083Z,12.39
2018-04-22T03:00:46.567Z,12.46
2018-04-22T03:03:14.036Z,12.58
2018-04-22T03:05:41.522Z,12.62
2018-04-22T03:08:08.981Z,12.69
2018-04-22T03:10:36.474Z,12.74
2018-04-22T03:13:03.937Z,12.78
2018-04-22T03:15:31.435Z,12.84
2018-04-22T03:17:58.910Z,12.84
2018-04-22T03:20:26.399Z,12.69
2018-04-22T03:22:53.865Z,12.75
2018-04-22T03:25:21.350Z,12.80
2018-04-22T03:27:48.823Z,12.83
2018-04-22T03:30:16.309Z,12.83
2018-04-22T03:32:43.775Z,12.88
2018-04-22T03:35:11.261Z,12.91
2018-04-22T03:37:38.734Z,12.91
2018-04-22T03:40:06.214Z,12.91
2018-04-22T03:42:33.789Z,12.91
2018-04-22T03:45:01.279Z,12.88
2018-04-22T03:47:28.742Z,12.90
2018-04-22T03:49:56.242Z,12.87
2018-04-22T03:52:23.709Z,12.88
2018-04-22T03:54:51.189Z,12.87
2018-04-22T03:57:18.662Z,12.87
2018-04-22T03:59:46.131Z,12.89
2018-04-22T04:02:13.613Z,12.87
2018-04-22T04:04:41.081Z,12.87
2018-04-22T04:07:08.565Z,12.86
2018-04-22T04:09:36.034Z,12.80
2018-04-22T04:12:03.521Z,12.79
2018-04-22T04:14:30.991Z,12.80
2018-04-22T04:16:58.478Z,12.57
2018-04-22T04:19:37.661Z,12.55
2018-04-22T04:22:16.817Z,12.44
2018-04-22T04:24:56.954Z,12.47
2018-04-22T04:30:23.253Z,12.53
2018-04-22T04:32:50.746Z,12.48
2018-04-22T04:35:18.207Z,12.54
2018-04-22T04:37:45.698Z,12.59
2018-04-22T04:40:13.174Z,12.62
2018-04-22T04:42:40.662Z,12.59
2018-04-22T04:45:08.126Z,12.66
2018-04-22T04:47:35.610Z,12.69
2018-04-22T04:50:03.076Z,12.75
2018-04-22T04:52:30.571Z,12.80
2018-04-22T04:54:58.034Z,12.80
2018-04-22T04:57:25.521Z,12.90
2018-04-22T04:59:52.978Z,13.00
2018-04-22T05:02:20.457Z,13.07
2018-04-22T05:04:47.925Z,13.08
2018-04-22T05:07:15.413Z,13.22
2018-04-22T05:09:42.883Z,13.26
2018-04-22T05:12:10.365Z,13.32
2018-04-22T05:14:37.834Z,13.40
2018-04-22T05:17:05.322Z,13.41
2018-04-22T05:19:32.797Z,13.55
2018-04-22T05:22:00.299Z,13.75
2018-04-22T05:24:27.761Z,13.92
2018-04-22T05:26:55.242Z,13.97
2018-04-22T05:29:22.712Z,14.07
2018-04-22T05:31:50.198Z,14.08
2018-04-22T05:34:17.664Z,14.14
2018-04-22T05:36:45.198Z,14.31
2018-04-22T05:39:12.658Z,14.45
2018-04-22T05:41:40.149Z,14.61
2018-04-22T05:44:07.623Z,14.71
2018-04-22T05:46:35.098Z,14.83
2018-04-22T05:49:02.578Z,14.96
2018-04-22T05:51:30.041Z,14.98
2018-04-22T05:53:57.555Z,15.09
2018-04-22T05:56:25.026Z,15.23
2018-04-22T05:58:52.509Z,15.36
2018-04-22T06:01:19.979Z,15.46
2018-04-22T06:03:47.467Z,15.62
2018-04-22T06:06:14.934Z,15.84
2018-04-22T06:08:42.413Z,15.75
2018-04-22T06:11:09.878Z,15.86
2018-04-22T06:13:37.362Z,16.03
2018-04-22T06:16:04.826Z,16.26
2018-04-22T06:18:32.322Z,16.40
2018-04-22T06:20:59.784Z,16.63
2018-04-22T06:23:27.265Z,16.81
2018-04-22T06:25:54.802Z,17.04
2018-04-22T06:28:22.298Z,17.21
2018-04-22T06:30:49.779Z,17.43
2018-04-22T06:33:17.270Z,17.58
2018-04-22T06:35:44.743Z,17.91
2018-04-22T06:38:14.354Z,18.22
2018-04-22T06:40:41.817Z,18.55
2018-04-22T06:43:09.307Z,18.83
2018-04-22T06:45:37.175Z,19.06
2018-04-22T06:48:04.663Z,19.35
2018-04-22T06:50:32.138Z,19.60
2018-04-22T06:52:59.626Z,19.73
2018-04-22T06:55:27.089Z,19.77
2018-04-22T06:57:54.580Z,19.91
2018-04-22T07:00:22.043Z,19.82
2018-04-22T07:02:49.533Z,19.90
2018-04-22T07:05:17.043Z,19.89
2018-04-22T07:07:44.535Z,19.93
2018-04-22T07:10:12.027Z,19.97
2018-04-22T07:12:39.510Z,19.98
2018-04-22T07:15:07.003Z,20.07
2018-04-22T07:17:34.489Z,20.10
2018-04-22T07:20:01.975Z,20.16
2018-04-22T07:22:29.480Z,20.20
2018-04-22T07:24:56.957Z,20.34
2018-04-22T07:27:24.418Z,20.49
2018-04-22T07:29:51.959Z,20.71
2018-04-22T07:32:19.426Z,20.81
2018-04-22T07:34:46.918Z,20.66
2018-04-22T07:37:14.491Z,20.65
2018-04-22T07:39:41.973Z,20.61
2018-04-22T07:42:09.437Z,20.67
2018-04-22T07:44:44.491Z,20.86
2018-04-22T07:47:12.073Z,21.29
2018-04-22T07:49:40.333Z,21.51
2018-04-22T07:52:07.912Z,21.62
2018-04-22T07:54:35.469Z,21.65
2018-04-22T07:57:03.011Z,22.02
2018-04-22T07:59:30.514Z,22.21
2018-04-22T08:01:57.987Z,22.47
2018-04-22T08:04:25.475Z,22.64
2018-04-22T08:06:52.942Z,22.68
2018-04-22T08:09:20.424Z,22.98
2018-04-22T08:11:47.926Z,23.15
2018-04-22T08:14:15.406Z,23.29
2018-04-22T08:16:42.886Z,23.36
2018-04-22T08:19:10.366Z,23.33
2018-04-22T08:21:37.826Z,23.62
2018-04-22T08:24:05.305Z,23.75
2018-04-22T08:26:32.761Z,23.77
2018-04-22T08:29:00.300Z,23.94
2018-04-22T08:31:27.768Z,24.08
2018-04-22T08:33:55.324Z,24.19
2018-04-22T08:36:22.790Z,24.25
2018-04-22T08:38:50.293Z,24.39
2018-04-22T08:41:17.753Z,24.31
2018-04-22T08:43:45.221Z,24.48
2018-04-22T08:46:12.784Z,24.48
2018-04-22T08:48:40.251Z,24.56
2018-04-22T08:54:38.546Z,24.89
2018-04-22T08:57:06.080Z,25.07
2018-04-22T08:59:33.566Z,25.29
2018-04-22T09:02:01.035Z,25.17
2018-04-22T09:04:28.521Z,25.26
2018-04-22T09:06:55.982Z,25.30
2018-04-22T09:09:23.457Z,25.46
2018-04-22T09:11:50.917Z,25.53
2018-04-22T09:14:18.397Z,25.67
2018-04-22T09:16:45.853Z,25.78
2018-04-22T09:19:13.322Z,26.23
2018-04-22T09:21:40.797Z,26.55
2018-04-22T09:24:08.253Z,25.89
2018-04-22T09:26:35.729Z,25.81
2018-04-22T09:29:03.189Z,25.78
2018-04-22T09:31:30.673Z,26.12
2018-04-22T09:33:58.131Z,26.23
2018-04-22T09:36:26.466Z,26.47
2018-04-22T09:38:53.983Z,26.54
2018-04-22T09:41:21.457Z,26.30
2018-04-22T09:43:48.926Z,26.28
2018-04-22T09:46:16.401Z,26.29
2018-04-22T09:48:43.858Z,26.55
2018-04-22T09:51:11.347Z,26.80
2018-04-22T09:53:38.810Z,26.77
2018-04-22T09:56:06.290Z,26.83
2018-04-22T09:58:33.747Z,26.98
2018-04-22T10:01:01.292Z,27.08
2018-04-22T10:03:31.590Z,26.76
2018-04-22T10:06:01.855Z,26.30
2018-04-22T10:08:29.313Z,26.30
2018-04-22T10:10:56.842Z,26.42
2018-04-22T10:13:24.261Z,26.35
2018-04-22T10:15:51.738Z,26.27
2018-04-22T10:18:19.198Z,26.38
2018-04-22T10:20:46.673Z,26.52
2018-04-22T10:23:14.130Z,26.72
2018-04-22T10:25:41.598Z,26.97
2018-04-22T10:28:09.050Z,27.18
2018-04-22T10:30:36.576Z,27.04
2018-04-22T10:33:04.015Z,26.87
2018-04-22T10:35:31.502Z,26.92
2018-04-22T10:37:58.965Z,27.03
2018-04-22T10:40:26.438Z,27.35
2018-04-22T10:42:53.886Z,27.40
2018-04-22T10:45:21.338Z,27.18
2018-04-22T10:47:48.809Z,27.08
2018-04-22T10:50:16.264Z,26.91
2018-04-22T10:52:44.368Z,26.62
2018-04-22T10:55:11.833Z,27.28
2018-04-22T10:57:39.321Z,27.35
2018-04-22T11:00:06.781Z,27.48
2018-04-22T11:02:34.256Z,26.83
2018-04-22T11:05:01.741Z,27.02
2018-04-22T11:07:29.218Z,27.61
2018-04-22T11:09:56.683Z,27.96
2018-04-22T11:12:24.158Z,28.06
2018-04-22T11:14:51.622Z,27.92
2018-04-22T11:17:19.097Z,28.04
2018-04-22T11:19:46.551Z,27.81
2018-04-22T11:22:14.022Z,27.95
2018-04-22T11:24:41.470Z,28.49
2018-04-22T11:27:08.949Z,28.52
2018-04-22T11:29:36.405Z,28.44
2018-04-22T11:32:03.877Z,27.90
2018-04-22T11:34:31.332Z,28.00
2018-04-22T11:36:58.810Z,28.77
2018-04-22T11:39:26.266Z,29.34
2018-04-22T11:41:53.733Z,29.70
2018-04-22T11:44:21.187Z,29.53
2018-04-22T11:46:48.670Z,28.75
2018-04-22T11:49:16.124Z,28.27
2018-04-22T11:51:43.602Z,27.76
2018-04-22T11:54:11.049Z,27.96
2018-04-22T11:56:38.522Z,28.04
2018-04-22T11:59:05.982Z,28.88
2018-04-22T12:01:33.462Z,29.21
2018-04-22T12:04:00.963Z,29.09
2018-04-22T12:06:28.460Z,29.14
2018-04-22T12:08:55.934Z,29.30
2018-04-22T12:11:23.398Z,29.16
2018-04-22T12:13:50.874Z,29.10
2018-04-22T12:16:18.330Z,29.41
2018-04-22T12:18:45.809Z,29.25
2018-04-22T12:21:13.276Z,28.96
2018-04-22T12:23:40.765Z,28.94
2018-04-22T12:26:08.223Z,29.42
2018-04-22T12:28:35.721Z,29.81
2018-04-22T12:31:03.175Z,29.73
2018-04-22T12:33:30.655Z,30.33
2018-04-22T12:35:58.117Z,30.50
2018-04-22T12:38:25.606Z,29.43
2018-04-22T12:40:53.083Z,28.49
2018-04-22T12:43:20.569Z,28.28
2018-04-22T12:45:48.036Z,27.92
2018-04-22T12:48:15.509Z,27.69
2018-04-22T12:50:42.979Z,27.54
2018-04-22T12:53:10.463Z,27.38
2018-04-22T12:55:37.917Z,27.21
2018-04-22T12:58:05.426Z,27.11
2018-04-22T13:00:32.888Z,26.83
2018-04-22T13:03:00.373Z,26.49
2018-04-22T13:05:27.830Z,24.66
2018-04-22T13:07:55.319Z,23.80
2018-04-22T13:10:22.782Z,23.61
2018-04-22T13:12:50.276Z,23.66
2018-04-22T13:15:17.733Z,23.69
2018-04-22T13:17:45.219Z,24.25
2018-04-22T13:20:12.690Z,24.26
2018-04-22T13:22:40.170Z,24.13
2018-04-22T13:25:07.632Z,25.26
2018-04-22T13:27:35.107Z,26.84
2018-04-22T13:30:02.565Z,26.72
2018-04-22T13:32:30.050Z,27.88
2018-04-22T13:34:57.506Z,28.08
2018-04-22T13:37:24.969Z,28.01
2018-04-22T13:39:52.465Z,27.93
2018-04-22T13:42:19.930Z,28.13
2018-04-22T13:44:47.418Z,27.77
2018-04-22T13:47:14.888Z,27.97
2018-04-22T13:49:42.357Z,28.61
2018-04-22T13:52:09.826Z,27.57
2018-04-22T13:54:37.314Z,27.81
2018-04-22T13:57:04.782Z,29.34
2018-04-22T13:59:32.268Z,27.64
2018-04-22T14:01:59.729Z,27.31
2018-04-22T14:04:27.232Z,26.92
2018-04-22T14:06:54.711Z,26.25
2018-04-22T14:09:22.194Z,25.46
2018-04-22T14:11:49.654Z,25.12
2018-04-22T14:14:17.129Z,24.96
2018-04-22T14:16:44.646Z,24.64
2018-04-22T14:19:12.122Z,24.65
2018-04-22T14:21:39.583Z,24.47
2018-04-22T14:24:07.053Z,24.40
2018-04-22T14:26:34.509Z,24.75
2018-04-22T14:29:01.982Z,24.56
2018-04-22T14:31:29.442Z,25.26
2018-04-22T14:33:56.922Z,25.52
2018-04-22T14:36:24.381Z,25.68
2018-04-22T14:38:51.862Z,24.67
2018-04-22T14:41:19.336Z,25.01
2018-04-22T14:43:58.620Z,26.02
2018-04-22T14:46:26.086Z,26.58
2018-04-22T14:49:05.264Z,27.16
2018-04-22T14:51:32.717Z,27.02
2018-04-22T14:54:00.190Z,27.59
2018-04-22T14:56:27.646Z,27.33
2018-04-22T14:58:55.851Z,28.86
2018-04-22T15:01:23.311Z,28.85
2018-04-22T15:03:50.794Z,30.91
2018-04-22T15:06:18.277Z,31.16
2018-04-22T15:08:45.769Z,32.40
2018-04-22T15:11:13.270Z,31.76
2018-04-22T15:13:40.726Z,32.78
2018-04-22T15:16:08.210Z,33.38
2018-04-22T15:18:35.677Z,32.36
2018-04-22T15:21:03.154Z,31.49
2018-04-22T15:23:30.609Z,30.25
2018-04-22T15:25:58.082Z,29.72
2018-04-22T15:28:25.533Z,29.38
2018-04-22T15:30:53.013Z,29.44
2018-04-22T15:33:20.473Z,29.08
2018-04-22T15:35:47.951Z,28.63
2018-04-22T15:38:15.410Z,28.62
2018-04-22T15:40:42.886Z,28.28
2018-04-22T15:43:10.354Z,27.25
2018-04-22T15:45:37.835Z,27.61
2018-04-22T15:48:05.298Z,27.96
2018-04-22T15:50:32.789Z,27.59
2018-04-22T15:53:00.279Z,27.39
2018-04-22T15:55:27.753Z,27.13
2018-04-22T15:57:55.215Z,26.43
2018-04-22T16:00:22.689Z,26.71
2018-04-22T16:02:50.154Z,26.18
2018-04-22T16:05:17.643Z,25.65
2018-04-22T16:07:45.096Z,27.18
2018-04-22T16:10:12.575Z,28.58
2018-04-22T16:12:40.035Z,28.88
2018-04-22T16:15:07.514Z,26.99
2018-04-22T16:17:34.988Z,27.98
2018-04-22T16:20:02.542Z,27.47
2018-04-22T16:22:29.997Z,26.78
2018-04-22T16:24:57.483Z,27.68
2018-04-22T16:27:24.944Z,27.91
2018-04-22T16:29:52.420Z,28.20
2018-04-22T16:32:20.673Z,27.43
2018-04-22T16:34:48.157Z,27.36
2018-04-22T16:37:15.729Z,26.20
2018-04-22T16:39:43.185Z,26.31
2018-04-22T16:42:10.669Z,26.23
2018-04-22T16:44:38.994Z,26.10
2018-04-22T16:47:06.479Z,25.94
2018-04-22T16:49:33.934Z,25.84
2018-04-22T16:52:01.420Z,25.67
2018-04-22T16:54:28.870Z,25.53
2018-04-22T16:56:56.345Z,25.64
2018-04-22T16:59:23.806Z,25.62
2018-04-22T17:01:51.282Z,25.60
2018-04-22T17:04:18.733Z,25.54
2018-04-22T17:06:46.205Z,25.47
2018-04-22T17:09:13.680Z,25.50
2018-04-22T17:11:41.153Z,25.47
2018-04-22T17:14:09.545Z,25.44
2018-04-22T17:16:37.031Z,25.46
2018-04-22T17:19:04.485Z,25.39
2018-04-22T17:21:31.964Z,25.42
2018-04-22T17:23:59.427Z,25.23
2018-04-22T17:26:26.905Z,25.36
2018-04-22T17:28:54.372Z,25.34
2018-04-22T17:31:21.870Z,25.35
2018-04-22T17:33:50.329Z,25.33
2018-04-22T17:36:17.810Z,25.29
2018-04-22T17:38:45.629Z,25.09
2018-04-22T17:41:13.110Z,25.03
2018-04-22T17:43:40.566Z,24.98
2018-04-22T17:46:08.054Z,24.84
2018-04-22T17:48:35.514Z,24.76
2018-04-22T17:51:02.993Z,24.71
2018-04-22T17:53:30.450Z,24.53
2018-04-22T17:55:57.926Z,24.46
2018-04-22T17:58:25.382Z,24.45
2018-04-22T18:00:52.857Z,24.45
2018-04-22T18:03:20.315Z,24.35
2018-04-22T18:05:48.009Z,24.28
2018-04-22T18:08:15.489Z,24.26
2018-04-22T18:10:42.949Z,24.19
2018-04-22T18:13:10.446Z,24.10
2018-04-22T18:15:37.910Z,24.04
2018-04-22T18:18:05.390Z,23.88
2018-04-22T18:20:32.853Z,23.89
2018-04-22T18:23:00.348Z,23.86
2018-04-22T18:25:27.801Z,23.68
2018-04-22T18:27:55.289Z,23.55
2018-04-22T18:30:22.746Z,23.41
2018-04-22T18:32:50.232Z,23.45
2018-04-22T18:35:17.685Z,23.37
2018-04-22T18:37:45.165Z,23.10
2018-04-22T18:40:12.623Z,23.00
2018-04-22T18:42:40.110Z,22.91
2018-04-22T18:45:07.570Z,22.71
2018-04-22T18:47:35.049Z,22.44
2018-04-22T18:50:02.847Z,22.62
2018-04-22T18:52:30.322Z,22.49
2018-04-22T18:54:57.797Z,22.57
2018-04-22T18:57:25.278Z,22.58
2018-04-22T18:59:52.754Z,22.32
2018-04-22T19:02:20.237Z,22.02
2018-04-22T19:04:47.705Z,21.96
2018-04-22T19:07:15.244Z,21.84
2018-04-22T19:09:42.709Z,21.80
2018-04-22T19:12:10.199Z,21.65
2018-04-22T19:14:37.653Z,21.63
2018-04-22T19:17:05.134Z,21.68
2018-04-22T19:19:32.594Z,21.44
2018-04-22T19:22:00.075Z,21.36
2018-04-22T19:24:27.561Z,21.19
2018-04-22T19:26:55.037Z,21.05
2018-04-22T19:29:22.498Z,20.85
2018-04-22T19:31:49.954Z,20.68
2018-04-22T19:34:17.431Z,20.51
2018-04-22T19:36:44.894Z,20.37
2018-04-22T19:39:12.369Z,20.23
2018-04-22T19:41:39.830Z,20.15
2018-04-22T19:44:07.320Z,20.08
2018-04-22T19:46:34.785Z,20.07
2018-04-22T19:49:02.266Z,20.08
2018-04-22T19:51:29.741Z,20.01
2018-04-22T19:53:57.230Z,20.01
2018-04-22T19:56:25.330Z,19.97
2018-04-22T19:58:52.809Z,19.88
2018-04-22T20:01:20.267Z,19.80
2018-04-22T20:03:47.753Z,19.72
2018-04-22T20:06:15.213Z,19.60
2018-04-22T20:08:42.689Z,19.50
2018-04-22T20:11:10.160Z,19.37
2018-04-22T20:13:38.390Z,19.33
2018-04-22T20:16:05.849Z,19.21
2018-04-22T20:18:33.329Z,19.17
2018-04-22T20:21:01.256Z,19.11
2018-04-22T20:23:28.733Z,19.05
2018-04-22T20:25:56.194Z,19.01
2018-04-22T20:28:23.682Z,18.93
2018-04-22T20:30:51.149Z,18.88
2018-04-22T20:33:18.633Z,18.80
2018-04-22T20:35:46.102Z,18.75
2018-04-22T20:38:13.577Z,18.74
2018-04-22T20:40:41.031Z,18.73
2018-04-22T20:43:08.507Z,18.72
2018-04-22T20:45:35.988Z,18.68
2018-04-22T20:48:04.199Z,18.74
2018-04-22T20:50:31.670Z,18.75
2018-04-22T20:52:59.130Z,18.75
2018-04-22T20:55:26.615Z,18.70
2018-04-22T20:57:54.090Z,18.73
2018-04-22T21:00:21.605Z,18.75
2018-04-22T21:02:49.070Z,18.70
2018-04-22T21:05:16.546Z,18.67
2018-04-22T21:07:43.993Z,18.67
2018-04-22T21:10:11.474Z,18.61
2018-04-22T21:12:38.941Z,18.69
2018-04-22T21:15:06.420Z,18.67
2018-04-22T21:17:33.884Z,18.62
2018-04-22T21:20:01.363Z,18.57
2018-04-22T21:22:28.842Z,18.58
2018-04-22T21:24:56.330Z,18.59
2018-04-22T21:27:23.789Z,18.60
2018-04-22T21:29:51.274Z,18.63
2018-04-22T21:32:18.747Z,18.77
2018-04-22T21:34:46.220Z,18.69
2018-04-22T21:37:13.686Z,18.70
2018-04-22T21:39:41.209Z,18.67
2018-04-22T21:42:08.667Z,18.64
2018-04-22T21:44:36.153Z,18.63
2018-04-22T21:47:03.625Z,18.60
2018-04-22T21:49:31.101Z,18.52
2018-04-22T21:51:58.557Z,18.53
2018-04-22T21:54:26.037Z,18.75
2018-04-22T21:56:53.502Z,18.89
2018-04-22T21:59:20.982Z,18.88
2018-04-22T22:01:48.441Z,18.99
2018-04-22T22:04:15.918Z,18.98
2018-04-22T22:06:43.381Z,19.10
2018-04-22T22:09:10.856Z,19.17
2018-04-22T22:11:38.313Z,19.04
2018-04-22T22:14:05.785Z,19.11
2018-04-22T22:16:33.565Z,19.04
2018-04-22T22:19:01.030Z,19.01
2018-04-22T22:21:28.512Z,18.94
2018-04-22T22:23:55.974Z,19.00
2018-04-22T22:26:23.445Z,19.02
2018-04-22T22:28:50.917Z,18.97
2018-04-22T22:31:18.389Z,18.90
2018-04-22T22:33:45.849Z,18.82
2018-04-22T22:36:13.336Z,18.69
2018-04-22T22:38:40.798Z,18.64
2018-04-22T22:41:08.889Z,18.61
2018-04-22T22:43:37.244Z,18.50
2018-04-22T22:46:04.738Z,18.47
2018-04-22T22:48:32.197Z,18.47
2018-04-22T22:50:59.678Z,18.62
2018-04-22T22:53:27.143Z,18.71
2018-04-22T22:55:54.621Z,18.71
2018-04-22T22:58:22.077Z,18.77
2018-04-22T23:00:49.555Z,18.70
2018-04-22T23:03:17.018Z,18.82
2018-04-22T23:05:44.503Z,18.93
2018-04-22T23:08:11.973Z,18.96
2018-04-22T23:10:39.469Z,19.14
2018-04-22T23:13:06.929Z,19.21
2018-04-22T23:15:34.406Z,19.11
2018-04-22T23:18:01.878Z,19.23
2018-04-22T23:20:29.358Z,19.26
2018-04-22T23:22:56.820Z,19.33
2018-04-22T23:25:24.305Z,19.26
2018-04-22T23:27:51.761Z,19.25
2018-04-22T23:30:19.245Z,19.40
2018-04-22T23:32:46.703Z,19.57
2018-04-22T23:35:14.183Z,20.18
2018-04-22T23:37:41.659Z,-142.98
2018-04-22T23:40:09.150Z,-142.98
2018-04-22T23:42:36.631Z,-142.98
2018-04-22T23:45:04.157Z,-142.98
2018-04-22T23:47:31.631Z,-142.98
2018-04-22T23:49:59.101Z,-142.98
2018-04-22T23:52:26.593Z,-142.98
2018-04-22T23:54:54.066Z,-142.98
2018-04-22T23:57:21.554Z,-142.98
2018-04-22T23:59:49.134Z,-142.98
